THY8RW LTAW-LTFM
Flight info
| Callsign | THY8RW |
|---|---|
| Flight time | 1h 7m |
| Altitude | 28000 |
| Route | ENFOR A4 TIMOP T97 ILHAN/N0445F360 UT97 LETBU/N0388F280 T97 KANQO |
| Aircraft | B738/M-SDE2E3FGHIRWXY/LB1 |
Departure
| Time | 2026-05-04 19:15 |
|---|---|
| Airport | Tokat Airport (LTAW) |
Arrival
| Time | 2026-05-04 20:22 |
|---|---|
| Airport | İstanbul Airport (LTFM) |
| Time | Latitude | Longitude | Altitude | Speed | Heading |
|---|---|---|---|---|---|
| 2026-05-04 18:42 | 40.31870 | 36.37998 | 1848 ft | 0 kts | 161° |
| 2026-05-04 19:06 | 40.31883 | 36.37992 | 1848 ft | 4 kts | 152° |
| 2026-05-04 19:07 | 40.31902 | 36.37972 | 1848 ft | 4 kts | 127° |
| 2026-05-04 19:07 | 40.31913 | 36.37944 | 1848 ft | 4 kts | 95° |
| 2026-05-04 19:07 | 40.31912 | 36.37922 | 1848 ft | 0 kts | 70° |
| 2026-05-04 19:10 | 40.31912 | 36.37923 | 1848 ft | 1 kts | 70° |
| 2026-05-04 19:11 | 40.31918 | 36.37946 | 1848 ft | 4 kts | 70° |
| 2026-05-04 19:11 | 40.31932 | 36.37997 | 1848 ft | 7 kts | 70° |
| 2026-05-04 19:11 | 40.31969 | 36.38044 | 1848 ft | 8 kts | 2° |
| 2026-05-04 19:11 | 40.32022 | 36.38024 | 1848 ft | 8 kts | 340° |
| 2026-05-04 19:12 | 40.32074 | 36.38000 | 1849 ft | 8 kts | 340° |
| 2026-05-04 19:12 | 40.32164 | 36.37942 | 1850 ft | 7 kts | 302° |
| 2026-05-04 19:12 | 40.32171 | 36.37875 | 1850 ft | 8 kts | 260° |
| 2026-05-04 19:13 | 40.32150 | 36.37788 | 1850 ft | 12 kts | 250° |
| 2026-05-04 19:13 | 40.32116 | 36.37687 | 1850 ft | 10 kts | 231° |
| 2026-05-04 19:13 | 40.32065 | 36.37627 | 1850 ft | 10 kts | 236° |
| 2026-05-04 19:13 | 40.32079 | 36.37558 | 1850 ft | 10 kts | 349° |
| 2026-05-04 19:14 | 40.32107 | 36.37627 | 1850 ft | 8 kts | 73° |
| 2026-05-04 19:14 | 40.32108 | 36.37633 | 1850 ft | 0 kts | 70° |
| 2026-05-04 19:14 | 40.32127 | 36.37702 | 1850 ft | 35 kts | 70° |
| 2026-05-04 19:14 | 40.32299 | 36.38332 | 1848 ft | 110 kts | 71° |
| 2026-05-04 19:15 | 40.32780 | 36.40008 | 2073 ft | 168 kts | 69° |
| 2026-05-04 19:15 | 40.33109 | 36.41429 | 2957 ft | 166 kts | 83° |
| 2026-05-04 19:15 | 40.33154 | 36.42946 | 3744 ft | 170 kts | 86° |
| 2026-05-04 19:15 | 40.33228 | 36.44623 | 4067 ft | 198 kts | 85° |
| 2026-05-04 19:16 | 40.33296 | 36.45892 | 4212 ft | 214 kts | 85° |
| 2026-05-04 19:16 | 40.33414 | 36.47918 | 4404 ft | 239 kts | 85° |
| 2026-05-04 19:16 | 40.33551 | 36.50165 | 4929 ft | 252 kts | 85° |
| 2026-05-04 19:16 | 40.33693 | 36.52470 | 5785 ft | 254 kts | 85° |
| 2026-05-04 19:17 | 40.33834 | 36.54741 | 6627 ft | 256 kts | 86° |
| 2026-05-04 19:17 | 40.33581 | 36.57069 | 7431 ft | 259 kts | 113° |
| 2026-05-04 19:17 | 40.32528 | 36.58975 | 8206 ft | 265 kts | 138° |
| 2026-05-04 19:17 | 40.30861 | 36.60125 | 8797 ft | 279 kts | 164° |
| 2026-05-04 19:18 | 40.28913 | 36.60425 | 9559 ft | 284 kts | 174° |
| 2026-05-04 19:18 | 40.26955 | 36.60388 | 10316 ft | 290 kts | 189° |
| 2026-05-04 19:18 | 40.25047 | 36.59255 | 10596 ft | 318 kts | 217° |
| 2026-05-04 19:18 | 40.23492 | 36.57069 | 11028 ft | 334 kts | 227° |
| 2026-05-04 19:19 | 40.22005 | 36.54698 | 11719 ft | 339 kts | 228° |
| 2026-05-04 19:19 | 40.20521 | 36.52305 | 12617 ft | 338 kts | 227° |
| 2026-05-04 19:19 | 40.19030 | 36.49923 | 13392 ft | 341 kts | 227° |
| 2026-05-04 19:19 | 40.17527 | 36.47550 | 14106 ft | 345 kts | 227° |
| 2026-05-04 19:20 | 40.15979 | 36.45119 | 14834 ft | 350 kts | 227° |
| 2026-05-04 19:20 | 40.14411 | 36.42665 | 15555 ft | 353 kts | 226° |
| 2026-05-04 19:20 | 40.12824 | 36.40191 | 16276 ft | 357 kts | 226° |
| 2026-05-04 19:20 | 40.11217 | 36.37692 | 16966 ft | 361 kts | 226° |
| 2026-05-04 19:21 | 40.09468 | 36.35353 | 17614 ft | 361 kts | 212° |
| 2026-05-04 19:21 | 40.07260 | 36.33872 | 18313 ft | 356 kts | 194° |
| 2026-05-04 19:21 | 40.04860 | 36.33048 | 19018 ft | 357 kts | 191° |
| 2026-05-04 19:21 | 40.02425 | 36.32312 | 19709 ft | 359 kts | 190° |
| 2026-05-04 19:22 | 39.99979 | 36.31568 | 20354 ft | 362 kts | 191° |
| 2026-05-04 19:22 | 39.97526 | 36.30791 | 21013 ft | 364 kts | 191° |
| 2026-05-04 19:22 | 39.95061 | 36.29994 | 21681 ft | 365 kts | 192° |
| 2026-05-04 19:22 | 39.92665 | 36.28837 | 22281 ft | 372 kts | 207° |
| 2026-05-04 19:23 | 39.90663 | 36.26710 | 22835 ft | 382 kts | 225° |
| 2026-05-04 19:23 | 39.89220 | 36.23764 | 23385 ft | 393 kts | 243° |
| 2026-05-04 19:23 | 39.88529 | 36.20265 | 23887 ft | 407 kts | 261° |
| 2026-05-04 19:23 | 39.88718 | 36.16543 | 24416 ft | 417 kts | 275° |
| 2026-05-04 19:24 | 39.89226 | 36.12812 | 24923 ft | 420 kts | 276° |
| 2026-05-04 19:24 | 39.89782 | 36.09067 | 25409 ft | 423 kts | 277° |
| 2026-05-04 19:24 | 39.90333 | 36.05293 | 25893 ft | 425 kts | 276° |
| 2026-05-04 19:24 | 39.90861 | 36.01499 | 26352 ft | 427 kts | 276° |
| 2026-05-04 19:25 | 39.91371 | 35.97671 | 26816 ft | 429 kts | 276° |
| 2026-05-04 19:25 | 39.91875 | 35.93826 | 27272 ft | 430 kts | 276° |
| 2026-05-04 19:25 | 39.92367 | 35.90024 | 27686 ft | 432 kts | 276° |
| 2026-05-04 19:25 | 39.92866 | 35.86148 | 28096 ft | 434 kts | 276° |
| 2026-05-04 19:26 | 39.93365 | 35.82259 | 28505 ft | 436 kts | 276° |
| 2026-05-04 19:26 | 39.93866 | 35.78351 | 28918 ft | 437 kts | 276° |
| 2026-05-04 19:26 | 39.94365 | 35.74447 | 29297 ft | 439 kts | 276° |
| 2026-05-04 19:26 | 39.94869 | 35.70497 | 29655 ft | 441 kts | 276° |
| 2026-05-04 19:27 | 39.95372 | 35.66542 | 29973 ft | 443 kts | 276° |
| 2026-05-04 19:27 | 39.95876 | 35.62562 | 30300 ft | 445 kts | 276° |
| 2026-05-04 19:27 | 39.96381 | 35.58579 | 30614 ft | 447 kts | 276° |
| 2026-05-04 19:27 | 39.96887 | 35.54570 | 30885 ft | 450 kts | 276° |
| 2026-05-04 19:28 | 39.97395 | 35.50529 | 31166 ft | 452 kts | 276° |
| 2026-05-04 19:28 | 39.97897 | 35.46537 | 31519 ft | 452 kts | 277° |
| 2026-05-04 19:28 | 39.98404 | 35.42494 | 31912 ft | 451 kts | 277° |
| 2026-05-04 19:28 | 39.98908 | 35.38466 | 32293 ft | 450 kts | 277° |
| 2026-05-04 19:29 | 39.99583 | 35.34462 | 32611 ft | 453 kts | 285° |
| 2026-05-04 19:29 | 40.00612 | 35.30577 | 32945 ft | 454 kts | 288° |
| 2026-05-04 19:29 | 40.01716 | 35.26704 | 33204 ft | 456 kts | 289° |
| 2026-05-04 19:29 | 40.02844 | 35.22824 | 33339 ft | 461 kts | 289° |
| 2026-05-04 19:30 | 40.03982 | 35.18895 | 33612 ft | 461 kts | 289° |
| 2026-05-04 19:30 | 40.05101 | 35.14991 | 34004 ft | 459 kts | 289° |
| 2026-05-04 19:30 | 40.06205 | 35.11099 | 34359 ft | 457 kts | 289° |
| 2026-05-04 19:30 | 40.07303 | 35.07190 | 34626 ft | 458 kts | 289° |
| 2026-05-04 19:31 | 40.08398 | 35.03267 | 34857 ft | 459 kts | 289° |
| 2026-05-04 19:31 | 40.09491 | 34.99338 | 35114 ft | 460 kts | 289° |
| 2026-05-04 19:31 | 40.10579 | 34.95412 | 35430 ft | 458 kts | 289° |
| 2026-05-04 19:31 | 40.11662 | 34.91499 | 35707 ft | 458 kts | 289° |
| 2026-05-04 19:32 | 40.12745 | 34.87581 | 35934 ft | 459 kts | 289° |
| 2026-05-04 19:32 | 40.13815 | 34.83706 | 36187 ft | 459 kts | 289° |
| 2026-05-04 19:32 | 40.14894 | 34.79793 | 36435 ft | 459 kts | 289° |
| 2026-05-04 19:32 | 40.15976 | 34.75865 | 36634 ft | 460 kts | 289° |
| 2026-05-04 19:33 | 40.17056 | 34.71939 | 36950 ft | 457 kts | 289° |
| 2026-05-04 19:33 | 40.18133 | 34.68017 | 37180 ft | 456 kts | 289° |
| 2026-05-04 19:33 | 40.19199 | 34.64129 | 37429 ft | 453 kts | 289° |
| 2026-05-04 19:33 | 40.20259 | 34.60259 | 37669 ft | 450 kts | 289° |
| 2026-05-04 19:34 | 40.21310 | 34.56417 | 37870 ft | 449 kts | 289° |
| 2026-05-04 19:34 | 40.23427 | 34.48646 | 37864 ft | 455 kts | 289° |
| 2026-05-04 19:35 | 40.25541 | 34.40860 | 37872 ft | 452 kts | 289° |
| 2026-05-04 19:35 | 40.27642 | 34.33111 | 37870 ft | 451 kts | 289° |
| 2026-05-04 19:36 | 40.29730 | 34.25387 | 37870 ft | 449 kts | 289° |
| 2026-05-04 19:36 | 40.31803 | 34.17688 | 37873 ft | 447 kts | 289° |
| 2026-05-04 19:37 | 40.33853 | 34.10056 | 37865 ft | 447 kts | 289° |
| 2026-05-04 19:37 | 40.35911 | 34.02366 | 37868 ft | 447 kts | 289° |
| 2026-05-04 19:38 | 40.37965 | 33.94668 | 37880 ft | 447 kts | 289° |
| 2026-05-04 19:38 | 40.40016 | 33.86963 | 37875 ft | 448 kts | 289° |
| 2026-05-04 19:39 | 40.42073 | 33.79208 | 37869 ft | 449 kts | 289° |
| 2026-05-04 19:39 | 40.44170 | 33.71472 | 37872 ft | 451 kts | 293° |
| 2026-05-04 19:40 | 40.47340 | 33.64401 | 37890 ft | 451 kts | 304° |
| 2026-05-04 19:40 | 40.50923 | 33.57625 | 37885 ft | 452 kts | 305° |
| 2026-05-04 19:41 | 40.54487 | 33.50813 | 37880 ft | 453 kts | 304° |
| 2026-05-04 19:41 | 40.58001 | 33.43989 | 37879 ft | 453 kts | 304° |
| 2026-05-04 19:42 | 40.61522 | 33.37104 | 37879 ft | 453 kts | 304° |
| 2026-05-04 19:42 | 40.65033 | 33.30225 | 37885 ft | 453 kts | 304° |
| 2026-05-04 19:43 | 40.68540 | 33.23344 | 37875 ft | 452 kts | 304° |
| 2026-05-04 19:43 | 40.72040 | 33.16461 | 37870 ft | 451 kts | 304° |
| 2026-05-04 19:44 | 40.75351 | 33.09462 | 37879 ft | 450 kts | 298° |
| 2026-05-04 19:44 | 40.78137 | 33.02053 | 37869 ft | 450 kts | 296° |
| 2026-05-04 19:45 | 40.80849 | 32.94615 | 37879 ft | 448 kts | 297° |
| 2026-05-04 19:45 | 40.83587 | 32.87226 | 37880 ft | 447 kts | 297° |
| 2026-05-04 19:46 | 40.86323 | 32.79905 | 37888 ft | 446 kts | 297° |
| 2026-05-04 19:46 | 40.89073 | 32.72554 | 37893 ft | 446 kts | 297° |
| 2026-05-04 19:47 | 40.91821 | 32.65186 | 37888 ft | 446 kts | 297° |
| 2026-05-04 19:47 | 40.94561 | 32.57818 | 37891 ft | 446 kts | 297° |
| 2026-05-04 19:48 | 40.97292 | 32.50450 | 37895 ft | 446 kts | 297° |
| 2026-05-04 19:48 | 41.00025 | 32.43062 | 37898 ft | 446 kts | 297° |
| 2026-05-04 19:49 | 41.02754 | 32.35670 | 37903 ft | 447 kts | 297° |
| 2026-05-04 19:49 | 41.05481 | 32.28259 | 37896 ft | 447 kts | 297° |
| 2026-05-04 19:50 | 41.08204 | 32.20838 | 37906 ft | 448 kts | 297° |
| 2026-05-04 19:50 | 41.10910 | 32.13451 | 37909 ft | 448 kts | 297° |
| 2026-05-04 19:51 | 41.13277 | 32.05799 | 37904 ft | 451 kts | 285° |
| 2026-05-04 19:51 | 41.14141 | 31.97554 | 37911 ft | 452 kts | 276° |
| 2026-05-04 19:52 | 41.14685 | 31.89255 | 37916 ft | 452 kts | 277° |
| 2026-05-04 19:52 | 41.15251 | 31.80929 | 37914 ft | 452 kts | 277° |
| 2026-05-04 19:53 | 41.15848 | 31.72621 | 37913 ft | 452 kts | 277° |
| 2026-05-04 19:53 | 41.16445 | 31.64409 | 37802 ft | 444 kts | 277° |
| 2026-05-04 19:53 | 41.16738 | 31.60358 | 37341 ft | 440 kts | 277° |
| 2026-05-04 19:54 | 41.17030 | 31.56308 | 36697 ft | 443 kts | 278° |
| 2026-05-04 19:54 | 41.17323 | 31.52222 | 35963 ft | 447 kts | 278° |
| 2026-05-04 19:54 | 41.17620 | 31.48083 | 35138 ft | 453 kts | 278° |
| 2026-05-04 19:54 | 41.17919 | 31.43877 | 34230 ft | 461 kts | 279° |
| 2026-05-04 19:55 | 41.18222 | 31.39601 | 33338 ft | 468 kts | 279° |
| 2026-05-04 19:55 | 41.18524 | 31.35281 | 32640 ft | 470 kts | 280° |
| 2026-05-04 19:55 | 41.18724 | 31.30999 | 32415 ft | 462 kts | 274° |
| 2026-05-04 19:55 | 41.18416 | 31.26721 | 32161 ft | 470 kts | 265° |
| 2026-05-04 19:56 | 41.17913 | 31.22384 | 31936 ft | 480 kts | 265° |
| 2026-05-04 19:56 | 41.17392 | 31.17974 | 31695 ft | 488 kts | 265° |
| 2026-05-04 19:56 | 41.16867 | 31.13519 | 31175 ft | 488 kts | 265° |
| 2026-05-04 19:56 | 41.16357 | 31.09152 | 30705 ft | 482 kts | 266° |
| 2026-05-04 19:57 | 41.15850 | 31.04755 | 30179 ft | 479 kts | 266° |
| 2026-05-04 19:57 | 41.15356 | 31.00417 | 29653 ft | 475 kts | 266° |
| 2026-05-04 19:57 | 41.14867 | 30.96086 | 29104 ft | 472 kts | 267° |
| 2026-05-04 19:57 | 41.14382 | 30.91789 | 28550 ft | 468 kts | 266° |
| 2026-05-04 19:58 | 41.13901 | 30.87531 | 28013 ft | 465 kts | 266° |
| 2026-05-04 19:58 | 41.13421 | 30.83297 | 27467 ft | 461 kts | 266° |
| 2026-05-04 19:58 | 41.12943 | 30.79106 | 26926 ft | 458 kts | 266° |
| 2026-05-04 19:58 | 41.12466 | 30.74936 | 26335 ft | 456 kts | 267° |
| 2026-05-04 19:59 | 41.11992 | 30.70805 | 25817 ft | 452 kts | 266° |
| 2026-05-04 19:59 | 41.11525 | 30.66750 | 25286 ft | 448 kts | 266° |
| 2026-05-04 19:59 | 41.11054 | 30.62675 | 24753 ft | 444 kts | 267° |
| 2026-05-04 19:59 | 41.10586 | 30.58640 | 24233 ft | 441 kts | 266° |
| 2026-05-04 20:00 | 41.10121 | 30.54659 | 23690 ft | 430 kts | 267° |
| 2026-05-04 20:00 | 41.09666 | 30.50791 | 23201 ft | 423 kts | 267° |
| 2026-05-04 20:00 | 41.09216 | 30.46946 | 22709 ft | 420 kts | 267° |
| 2026-05-04 20:00 | 41.08769 | 30.43130 | 22206 ft | 417 kts | 266° |
| 2026-05-04 20:01 | 41.08325 | 30.39349 | 21714 ft | 414 kts | 266° |
| 2026-05-04 20:01 | 41.08039 | 30.36914 | 21391 ft | 412 kts | 266° |
| 2026-05-04 20:01 | 41.07598 | 30.33175 | 20867 ft | 410 kts | 266° |
| 2026-05-04 20:01 | 41.07149 | 30.29378 | 20374 ft | 407 kts | 266° |
| 2026-05-04 20:02 | 41.06710 | 30.25691 | 19893 ft | 403 kts | 266° |
| 2026-05-04 20:02 | 41.06275 | 30.22039 | 19411 ft | 400 kts | 266° |
| 2026-05-04 20:02 | 41.05838 | 30.18388 | 18918 ft | 397 kts | 266° |
| 2026-05-04 20:02 | 41.05406 | 30.14784 | 18442 ft | 393 kts | 266° |
| 2026-05-04 20:03 | 41.04983 | 30.11265 | 17969 ft | 390 kts | 266° |
| 2026-05-04 20:03 | 41.04557 | 30.07726 | 17493 ft | 387 kts | 265° |
| 2026-05-04 20:03 | 41.04133 | 30.04217 | 17024 ft | 384 kts | 265° |
| 2026-05-04 20:03 | 41.03712 | 30.00759 | 16548 ft | 374 kts | 265° |
| 2026-05-04 20:04 | 41.03303 | 29.97414 | 16104 ft | 364 kts | 266° |
| 2026-05-04 20:04 | 41.02900 | 29.94114 | 15657 ft | 362 kts | 266° |
| 2026-05-04 20:04 | 41.02499 | 29.90824 | 15215 ft | 361 kts | 266° |
| 2026-05-04 20:04 | 41.02100 | 29.87545 | 14765 ft | 360 kts | 265° |
| 2026-05-04 20:05 | 41.01702 | 29.84289 | 14331 ft | 358 kts | 265° |
| 2026-05-04 20:05 | 41.01301 | 29.81034 | 13882 ft | 357 kts | 265° |
| 2026-05-04 20:05 | 41.00903 | 29.77797 | 13425 ft | 355 kts | 265° |
| 2026-05-04 20:05 | 41.00504 | 29.74579 | 13001 ft | 353 kts | 265° |
| 2026-05-04 20:06 | 41.00108 | 29.71395 | 12719 ft | 346 kts | 265° |
| 2026-05-04 20:06 | 40.99719 | 29.68276 | 12462 ft | 339 kts | 265° |
| 2026-05-04 20:06 | 40.99339 | 29.65225 | 12208 ft | 333 kts | 265° |
| 2026-05-04 20:06 | 40.98963 | 29.62218 | 11958 ft | 328 kts | 265° |
| 2026-05-04 20:07 | 40.98599 | 29.59301 | 11698 ft | 323 kts | 265° |
| 2026-05-04 20:07 | 40.98236 | 29.56400 | 11524 ft | 315 kts | 265° |
| 2026-05-04 20:07 | 40.97882 | 29.53588 | 11382 ft | 306 kts | 265° |
| 2026-05-04 20:07 | 40.97534 | 29.50818 | 11065 ft | 304 kts | 265° |
| 2026-05-04 20:08 | 40.97189 | 29.48066 | 10771 ft | 302 kts | 265° |
| 2026-05-04 20:08 | 40.96845 | 29.45341 | 10502 ft | 298 kts | 265° |
| 2026-05-04 20:08 | 40.96506 | 29.42647 | 10192 ft | 296 kts | 265° |
| 2026-05-04 20:08 | 40.96167 | 29.39969 | 9900 ft | 293 kts | 265° |
| 2026-05-04 20:09 | 40.95834 | 29.37348 | 9636 ft | 290 kts | 265° |
| 2026-05-04 20:09 | 40.95497 | 29.34703 | 9362 ft | 287 kts | 265° |
| 2026-05-04 20:09 | 40.95171 | 29.32138 | 9083 ft | 285 kts | 265° |
| 2026-05-04 20:09 | 40.94843 | 29.29569 | 8810 ft | 282 kts | 265° |
| 2026-05-04 20:10 | 40.94514 | 29.27012 | 8534 ft | 282 kts | 265° |
| 2026-05-04 20:10 | 40.94187 | 29.24470 | 8276 ft | 279 kts | 265° |
| 2026-05-04 20:10 | 40.93863 | 29.21945 | 7948 ft | 278 kts | 265° |
| 2026-05-04 20:10 | 40.93544 | 29.19458 | 7629 ft | 277 kts | 265° |
| 2026-05-04 20:11 | 40.93225 | 29.16956 | 7305 ft | 275 kts | 265° |
| 2026-05-04 20:11 | 40.92903 | 29.14459 | 6956 ft | 275 kts | 265° |
| 2026-05-04 20:11 | 40.92581 | 29.11982 | 6679 ft | 272 kts | 265° |
| 2026-05-04 20:11 | 40.92263 | 29.09520 | 6371 ft | 271 kts | 265° |
| 2026-05-04 20:12 | 40.91946 | 29.07066 | 6052 ft | 270 kts | 264° |
| 2026-05-04 20:12 | 40.91628 | 29.04626 | 5741 ft | 269 kts | 264° |
| 2026-05-04 20:12 | 40.91312 | 29.02195 | 5421 ft | 267 kts | 264° |
| 2026-05-04 20:12 | 40.91166 | 28.99783 | 5195 ft | 262 kts | 277° |
| 2026-05-04 20:13 | 40.91372 | 28.97394 | 4944 ft | 262 kts | 282° |
| 2026-05-04 20:13 | 40.91625 | 28.95006 | 4671 ft | 262 kts | 281° |
| 2026-05-04 20:13 | 40.91858 | 28.92630 | 4397 ft | 260 kts | 281° |
| 2026-05-04 20:13 | 40.92078 | 28.90259 | 4131 ft | 260 kts | 280° |
| 2026-05-04 20:14 | 40.92293 | 28.87881 | 4057 ft | 260 kts | 280° |
| 2026-05-04 20:14 | 40.92502 | 28.85505 | 4026 ft | 261 kts | 280° |
| 2026-05-04 20:14 | 40.92710 | 28.83128 | 4020 ft | 260 kts | 280° |
| 2026-05-04 20:14 | 40.93016 | 28.80820 | 4005 ft | 256 kts | 295° |
| 2026-05-04 20:15 | 40.94001 | 28.78919 | 4028 ft | 251 kts | 320° |
| 2026-05-04 20:15 | 40.95409 | 28.77578 | 4028 ft | 250 kts | 330° |
| 2026-05-04 20:15 | 40.96916 | 28.76435 | 4027 ft | 250 kts | 338° |
| 2026-05-04 20:15 | 40.98600 | 28.76073 | 4037 ft | 247 kts | 2° |
| 2026-05-04 20:16 | 41.00322 | 28.76149 | 4018 ft | 246 kts | 0° |
| 2026-05-04 20:16 | 41.01995 | 28.76131 | 3997 ft | 234 kts | 359° |
| 2026-05-04 20:16 | 41.03580 | 28.76104 | 3993 ft | 221 kts | 359° |
| 2026-05-04 20:16 | 41.05075 | 28.76077 | 4001 ft | 207 kts | 359° |
| 2026-05-04 20:17 | 41.06457 | 28.76049 | 3996 ft | 190 kts | 359° |
| 2026-05-04 20:17 | 41.07743 | 28.76021 | 3875 ft | 181 kts | 359° |
| 2026-05-04 20:17 | 41.08989 | 28.75998 | 3650 ft | 177 kts | 359° |
| 2026-05-04 20:17 | 41.10218 | 28.75975 | 3422 ft | 177 kts | 359° |
| 2026-05-04 20:18 | 41.11451 | 28.75951 | 3194 ft | 177 kts | 360° |
| 2026-05-04 20:18 | 41.12690 | 28.75928 | 2948 ft | 178 kts | 360° |
| 2026-05-04 20:18 | 41.13921 | 28.75902 | 2727 ft | 175 kts | 2° |
| 2026-05-04 20:18 | 41.15120 | 28.75882 | 2498 ft | 172 kts | 2° |
| 2026-05-04 20:19 | 41.16313 | 28.75856 | 2251 ft | 170 kts | 357° |
| 2026-05-04 20:19 | 41.17473 | 28.75840 | 2038 ft | 163 kts | 357° |
| 2026-05-04 20:19 | 41.18567 | 28.75818 | 1842 ft | 151 kts | 357° |
| 2026-05-04 20:19 | 41.19598 | 28.75797 | 1634 ft | 147 kts | 356° |
| 2026-05-04 20:20 | 41.20610 | 28.75774 | 1436 ft | 144 kts | 353° |
| 2026-05-04 20:20 | 41.21617 | 28.75729 | 1228 ft | 147 kts | 355° |
| 2026-05-04 20:20 | 41.22636 | 28.75741 | 1056 ft | 147 kts | 358° |
| 2026-05-04 20:20 | 41.23650 | 28.75719 | 856 ft | 144 kts | 354° |
| 2026-05-04 20:21 | 41.24647 | 28.75693 | 653 ft | 145 kts | 354° |
| 2026-05-04 20:21 | 41.25662 | 28.75679 | 458 ft | 146 kts | 355° |
| 2026-05-04 20:21 | 41.27533 | 28.75646 | 287 ft | 104 kts | 360° |
| 2026-05-04 20:22 | 41.28094 | 28.75642 | 264 ft | 52 kts | 359° |
| 2026-05-04 20:22 | 41.28325 | 28.75572 | 256 ft | 24 kts | 334° |
| 2026-05-04 20:22 | 41.28406 | 28.75503 | 253 ft | 12 kts | 323° |
| 2026-05-04 20:22 | 41.28443 | 28.75426 | 252 ft | 10 kts | 270° |
| 2026-05-04 20:23 | 41.28404 | 28.75359 | 253 ft | 10 kts | 203° |
| 2026-05-04 20:23 | 41.28339 | 28.75352 | 256 ft | 9 kts | 179° |
| 2026-05-04 20:23 | 41.28275 | 28.75353 | 259 ft | 9 kts | 180° |
| 2026-05-04 20:23 | 41.28213 | 28.75353 | 262 ft | 9 kts | 180° |
| 2026-05-04 20:24 | 41.28153 | 28.75354 | 265 ft | 8 kts | 179° |
| 2026-05-04 20:24 | 41.28099 | 28.75355 | 267 ft | 7 kts | 179° |
| 2026-05-04 20:24 | 41.28048 | 28.75355 | 270 ft | 7 kts | 179° |
| 2026-05-04 20:24 | 41.27999 | 28.75356 | 272 ft | 7 kts | 179° |
| 2026-05-04 20:25 | 41.27951 | 28.75356 | 274 ft | 7 kts | 179° |
| 2026-05-04 20:25 | 41.27903 | 28.75359 | 277 ft | 7 kts | 174° |
| 2026-05-04 20:25 | 41.27858 | 28.75359 | 279 ft | 7 kts | 180° |
| 2026-05-04 20:25 | 41.27812 | 28.75359 | 282 ft | 6 kts | 180° |
| 2026-05-04 20:26 | 41.27767 | 28.75358 | 284 ft | 7 kts | 180° |
| 2026-05-04 20:26 | 41.27715 | 28.75359 | 286 ft | 7 kts | 179° |
| 2026-05-04 20:26 | 41.27664 | 28.75360 | 289 ft | 7 kts | 179° |
| 2026-05-04 20:26 | 41.27615 | 28.75360 | 291 ft | 7 kts | 179° |
| 2026-05-04 20:27 | 41.27566 | 28.75361 | 292 ft | 7 kts | 179° |
| 2026-05-04 20:27 | 41.27519 | 28.75362 | 294 ft | 7 kts | 178° |
| 2026-05-04 20:27 | 41.27467 | 28.75363 | 296 ft | 9 kts | 179° |
| 2026-05-04 20:27 | 41.27399 | 28.75365 | 297 ft | 10 kts | 175° |
| 2026-05-04 20:28 | 41.27329 | 28.75367 | 299 ft | 10 kts | 180° |
| 2026-05-04 20:28 | 41.27261 | 28.75366 | 301 ft | 10 kts | 180° |
| 2026-05-04 20:28 | 41.27195 | 28.75367 | 302 ft | 9 kts | 179° |
| 2026-05-04 20:28 | 41.27130 | 28.75368 | 303 ft | 9 kts | 179° |
| 2026-05-04 20:29 | 41.27074 | 28.75340 | 304 ft | 9 kts | 231° |
| 2026-05-04 20:29 | 41.27047 | 28.75269 | 305 ft | 9 kts | 220° |
| 2026-05-04 20:29 | 41.26989 | 28.75253 | 305 ft | 8 kts | 180° |
| 2026-05-04 20:29 | 41.26930 | 28.75254 | 306 ft | 9 kts | 180° |
| 2026-05-04 20:30 | 41.26857 | 28.75255 | 307 ft | 12 kts | 179° |
| 2026-05-04 20:30 | 41.26762 | 28.75256 | 309 ft | 15 kts | 179° |
| 2026-05-04 20:30 | 41.26658 | 28.75259 | 310 ft | 15 kts | 179° |
| 2026-05-04 20:30 | 41.26557 | 28.75261 | 311 ft | 14 kts | 179° |
| 2026-05-04 20:31 | 41.26460 | 28.75262 | 312 ft | 14 kts | 181° |
| 2026-05-04 20:31 | 41.26367 | 28.75264 | 312 ft | 13 kts | 179° |
| 2026-05-04 20:31 | 41.26280 | 28.75265 | 313 ft | 13 kts | 179° |
| 2026-05-04 20:31 | 41.26191 | 28.75267 | 313 ft | 12 kts | 179° |
| 2026-05-04 20:32 | 41.26095 | 28.75269 | 313 ft | 15 kts | 179° |
| 2026-05-04 20:32 | 41.25987 | 28.75270 | 313 ft | 15 kts | 179° |
| 2026-05-04 20:32 | 41.25883 | 28.75272 | 313 ft | 15 kts | 179° |
| 2026-05-04 20:32 | 41.25782 | 28.75274 | 313 ft | 14 kts | 179° |
| 2026-05-04 20:33 | 41.25695 | 28.75276 | 312 ft | 10 kts | 179° |
| 2026-05-04 20:33 | 41.25645 | 28.75233 | 312 ft | 9 kts | 258° |
| 2026-05-04 20:33 | 41.25643 | 28.75142 | 310 ft | 11 kts | 269° |
| 2026-05-04 20:33 | 41.25645 | 28.75053 | 310 ft | 8 kts | 284° |
| 2026-05-04 20:34 | 41.25680 | 28.75021 | 310 ft | 5 kts | 356° |
| 2026-05-04 20:34 | 41.25718 | 28.75024 | 311 ft | 5 kts | 4° |
| 2026-05-04 20:34 | 41.25740 | 28.75024 | 311 ft | 2 kts | 359° |
| 2026-05-04 20:34 | 41.25747 | 28.75024 | 311 ft | 0 kts | 359° |